»·PEaware :: WAT169 KRNO-KLAS

WAT169 :: KRNO-KLAS

FLIGHT INFORMATION

Flight Status: Arrived
Operator:
Walker Air Transport
More flights by this operator :: More flights under this callsign
Pilot: Marty P. (27464)
Aircraft: DASSAULT AVIATION FALCON 50
(FA50)
More flights by this aircraft type
Origin: KRNO Reno/Tahoe Intl
United States
Destination: KLAS McCarran Intl
United States
More flights between these airports :: More routes between these airports
Route: +PVINE3 PVINE HIWAA PESKE LIDAT J92 BTY SUNST4
File this flight plan on PilotEdge
Remarks: Good evening
Altitude:
(Current/Filed)
37,000ft
Speed:
(Current/Filed)
480kts
Departed: 25-Nov-20 08:27 PM
Arrived: 25-Nov-20 09:19 PM
Distance/Time
Traveled:
299nm/0:52
Distance/Time
To Go:
Arrived

Flight Plot

Page will automatically refresh every two minutes.

Flight plan parsing failed; only flown route is shown


Map Options




Map Legend


Flown Route
Filed Route
Departure Airport
Arrival Airport
Navaid (VOR, NDB)
Fix

Horizontal Profiles

Position Reports

Time Latitude Longitude Heading Altitude Ground
Speed
25-Nov-20 20:01 39.498866 -119.763625 270 4422ft 0kts
25-Nov-20 20:02 39.498866 -119.763625 270 4422ft 0kts
25-Nov-20 20:03 39.498866 -119.763625 270 4422ft 0kts
25-Nov-20 20:04 39.498866 -119.763625 270 4422ft 0kts
25-Nov-20 20:05 39.498866 -119.763625 270 4422ft 0kts
25-Nov-20 20:06 39.498866 -119.763625 270 4422ft 0kts
25-Nov-20 20:07 39.498866 -119.763625 270 4422ft 0kts
25-Nov-20 20:08 39.498866 -119.763625 270 4422ft 0kts
25-Nov-20 20:09 39.498866 -119.763625 270 4422ft 0kts
25-Nov-20 20:10 39.498866 -119.763625 270 4422ft 0kts
25-Nov-20 20:11 39.498866 -119.763625 270 4422ft 0kts
25-Nov-20 20:12 39.498866 -119.763625 270 4422ft 0kts
25-Nov-20 20:13 39.498405 -119.763755 270 4422ft 0kts
25-Nov-20 20:14 39.498405 -119.763755 270 4422ft 0kts
25-Nov-20 20:15 39.498405 -119.763755 270 4422ft 0kts
25-Nov-20 20:16 39.498405 -119.763755 270 4422ft 0kts
25-Nov-20 20:17 39.498405 -119.763755 270 4422ft 0kts
25-Nov-20 20:18 39.498405 -119.763755 270 4422ft 0kts
25-Nov-20 20:19 39.497911 -119.763892 180 4422ft 0kts
25-Nov-20 20:20 39.497822 -119.763894 181 4422ft 1kts
25-Nov-20 20:21 39.497175 -119.765088 213 4422ft 8kts
25-Nov-20 20:22 39.494253 -119.765208 179 4422ft 13kts
25-Nov-20 20:23 39.490122 -119.765219 179 4422ft 12kts
25-Nov-20 20:24 39.489261 -119.765753 264 4422ft 0kts
25-Nov-20 20:25 39.490039 -119.766803 0 4422ft 13kts
25-Nov-20 20:26 39.524764 -119.767296 357 5529ft 183kts
25-Nov-20 20:27 39.584282 -119.765891 8 8758ft 252kts
25-Nov-20 20:28 39.642989 -119.715982 54 10005ft 274kts
25-Nov-20 20:29 39.624334 -119.627320 149 10866ft 325kts
25-Nov-20 20:30 39.535086 -119.567067 153 13862ft 384kts
25-Nov-20 20:31 39.436665 -119.501075 154 16999ft 414kts
25-Nov-20 20:32 39.331466 -119.430589 156 19566ft 442kts
25-Nov-20 20:33 39.221464 -119.357121 157 22113ft 456kts
25-Nov-20 20:34 39.107518 -119.281269 158 24156ft 471kts
25-Nov-20 20:35 38.991338 -119.204075 159 26473ft 469kts
25-Nov-20 20:36 38.886767 -119.134302 163 31515ft 382kts
25-Nov-20 20:38 38.792486 -119.072815 164 33269ft 385kts
25-Nov-20 20:39 38.710617 -118.974878 142 34373ft 427kts
25-Nov-20 20:40 38.629433 -118.864052 141 35752ft 432kts
25-Nov-20 20:41 38.546933 -118.752207 141 36900ft 440kts
25-Nov-20 20:42 38.461800 -118.637506 141 37242ft 466kts
25-Nov-20 20:43 38.370147 -118.514327 141 37242ft 495kts
25-Nov-20 20:44 38.273566 -118.384876 141 37242ft 515kts
25-Nov-20 20:45 38.175028 -118.253338 142 37224ft 525kts
25-Nov-20 20:46 38.073731 -118.118751 142 37226ft 529kts
25-Nov-20 20:47 37.971374 -117.983420 142 37127ft 533kts
25-Nov-20 20:48 37.868638 -117.848152 142 37087ft 534kts
25-Nov-20 20:49 37.765497 -117.712949 142 37109ft 534kts
25-Nov-20 20:50 37.662609 -117.578671 142 37136ft 532kts
25-Nov-20 20:51 37.560068 -117.445415 142 37134ft 530kts
25-Nov-20 20:52 37.457735 -117.312897 143 37047ft 521kts
25-Nov-20 20:53 37.346326 -117.206631 156 35534ft 501kts
25-Nov-20 20:54 37.230891 -117.108556 156 34014ft 502kts
25-Nov-20 20:55 37.115488 -117.011070 156 32819ft 501kts
25-Nov-20 20:56 36.999347 -116.913514 155 31807ft 508kts
25-Nov-20 20:57 36.881714 -116.814899 155 30614ft 512kts
25-Nov-20 20:58 36.769208 -116.702359 140 29657ft 533kts
25-Nov-20 20:59 36.671253 -116.562766 138 28712ft 537kts
25-Nov-20 20:59 36.589573 -116.446699 137 27547ft 537kts
25-Nov-20 21:01 36.477077 -116.287534 137 24796ft 514kts
25-Nov-20 21:01 36.401349 -116.180762 136 22515ft 479kts
25-Nov-20 21:03 36.303018 -116.042951 135 18941ft 452kts
25-Nov-20 21:03 36.233779 -115.946192 134 16444ft 447kts
25-Nov-20 21:04 36.174393 -115.819820 112 15990ft 420kts
25-Nov-20 21:05 36.132415 -115.687585 113 15972ft 385kts
25-Nov-20 21:06 36.097300 -115.578649 113 15236ft 313kts
25-Nov-20 21:07 36.066096 -115.482616 113 12526ft 290kts
25-Nov-20 21:08 36.037400 -115.394328 112 10989ft 268kts
25-Nov-20 21:09 36.025695 -115.302214 96 10022ft 270kts
25-Nov-20 21:10 36.019225 -115.211207 97 9005ft 264kts
25-Nov-20 21:11 36.013591 -115.128314 97 8208ft 219kts
25-Nov-20 21:12 36.037239 -115.072223 21 6190ft 218kts
25-Nov-20 21:13 36.093975 -115.047001 20 5061ft 213kts
25-Nov-20 21:14 36.145342 -115.046489 301 4060ft 176kts
25-Nov-20 21:15 36.153511 -115.092871 248 3496ft 135kts
25-Nov-20 21:16 36.138013 -115.132291 219 3035ft 125kts
25-Nov-20 21:17 36.107815 -115.151690 207 2348ft 118kts
25-Nov-20 21:18 36.086300 -115.164123 205 2140ft 34kts
25-Nov-20 21:19 36.082696 -115.168071 275 2161ft 12kts
25-Nov-20 21:20 36.080647 -115.170187 321 2171ft 8kts
25-Nov-20 21:21 36.080952 -115.170693 104 2172ft 0kts
25-Nov-20 21:22 36.080952 -115.170693 104 2172ft 0kts
25-Nov-20 21:23 36.080952 -115.170693 104 2172ft 0kts
25-Nov-20 21:24 36.080952 -115.170693 104 2172ft 0kts
25-Nov-20 21:25 36.080952 -115.170693 104 2172ft 0kts
25-Nov-20 21:26 36.080952 -115.170693 104 2172ft 0kts
25-Nov-20 21:27 36.080952 -115.170693 104 2172ft 0kts
25-Nov-20 21:28 36.080952 -115.170693 104 2172ft 0kts
25-Nov-20 21:29 36.080952 -115.170693 104 2172ft 0kts

Navigation Log

Ident Type
Flight plan parsing failed, navigation log unavailable